Terminal Aerodrome Forecast
Issued by NWS

Home | Current Version | Previous Version | Text Only | Print | Product List | Glossary Off
Versions: 1 2 3 4 5 6 7 8 9 10 11 12 13 14 15 16 17 18 19 20 21 22

000
FTUS43 KICT 231701 AAA
TAFHUT
TAF AMD
KHUT 231701Z 2317/2412 11012KT P6SM SCT025 OVC035
      TEMPO 2317/2319 BKN025
     FM231900 11015G22KT P6SM OVC035
     FM240200 13016G23KT P6SM VCTS OVC020CB=

USA.gov is the U.S. government's official web portal to all federal, state and local government web resources and services.